sensor_id;sensor_type;location;lat;lon;timestamp;P1;durP1;ratioP1;P2;durP2;ratioP2
9178;SDS011;4624;48.126;11.546;2023-04-15T00:00:43;5.07;;;3.90;;
9178;SDS011;4624;48.126;11.546;2023-04-15T00:03:10;4.70;;;3.40;;
9178;SDS011;4624;48.126;11.546;2023-04-15T00:05:37;3.33;;;3.00;;
9178;SDS011;4624;48.126;11.546;2023-04-15T00:08:05;3.90;;;2.60;;
9178;SDS011;4624;48.126;11.546;2023-04-15T00:10:32;2.90;;;2.57;;
9178;SDS011;4624;48.126;11.546;2023-04-15T00:12:59;2.93;;;2.30;;
9178;SDS011;4624;48.126;11.546;2023-04-15T00:15:28;2.70;;;2.00;;
9178;SDS011;4624;48.126;11.546;2023-04-15T00:17:55;2.80;;;1.67;;
9178;SDS011;4624;48.126;11.546;2023-04-15T00:20:22;1.77;;;1.60;;
9178;SDS011;4624;48.126;11.546;2023-04-15T00:22:49;2.37;;;1.63;;
9178;SDS011;4624;48.126;11.546;2023-04-15T00:25:17;3.47;;;1.97;;
9178;SDS011;4624;48.126;11.546;2023-04-15T00:27:44;2.90;;;1.23;;
9178;SDS011;4624;48.126;11.546;2023-04-15T00:30:11;2.87;;;1.60;;
9178;SDS011;4624;48.126;11.546;2023-04-15T00:32:38;2.67;;;1.57;;
9178;SDS011;4624;48.126;11.546;2023-04-15T00:35:06;2.70;;;1.73;;
9178;SDS011;4624;48.126;11.546;2023-04-15T00:37:33;3.30;;;1.47;;
9178;SDS011;4624;48.126;11.546;2023-04-15T00:40:01;2.67;;;1.40;;
9178;SDS011;4624;48.126;11.546;2023-04-15T00:42:31;3.03;;;1.40;;
9178;SDS011;4624;48.126;11.546;2023-04-15T00:44:58;2.03;;;1.43;;
9178;SDS011;4624;48.126;11.546;2023-04-15T00:47:25;3.47;;;1.53;;
9178;SDS011;4624;48.126;11.546;2023-04-15T00:49:54;3.67;;;1.43;;
9178;SDS011;4624;48.126;11.546;2023-04-15T00:52:22;3.13;;;1.60;;
9178;SDS011;4624;48.126;11.546;2023-04-15T00:54:48;3.10;;;1.27;;
9178;SDS011;4624;48.126;11.546;2023-04-15T00:57:17;3.23;;;1.60;;
9178;SDS011;4624;48.126;11.546;2023-04-15T00:59:47;2.80;;;1.83;;
9178;SDS011;4624;48.126;11.546;2023-04-15T01:02:15;3.40;;;1.47;;
9178;SDS011;4624;48.126;11.546;2023-04-15T01:04:42;2.07;;;1.23;;
9178;SDS011;4624;48.126;11.546;2023-04-15T01:07:09;4.07;;;1.70;;
9178;SDS011;4624;48.126;11.546;2023-04-15T01:09:36;3.47;;;1.43;;
9178;SDS011;4624;48.126;11.546;2023-04-15T01:12:03;1.70;;;1.30;;
9178;SDS011;4624;48.126;11.546;2023-04-15T01:14:30;2.73;;;1.27;;
9178;SDS011;4624;48.126;11.546;2023-04-15T01:17:00;4.23;;;1.80;;
9178;SDS011;4624;48.126;11.546;2023-04-15T01:19:26;2.73;;;1.40;;
9178;SDS011;4624;48.126;11.546;2023-04-15T01:21:53;3.07;;;1.70;;
9178;SDS011;4624;48.126;11.546;2023-04-15T01:24:21;2.80;;;1.80;;
9178;SDS011;4624;48.126;11.546;2023-04-15T01:26:50;3.53;;;1.70;;
9178;SDS011;4624;48.126;11.546;2023-04-15T01:29:17;3.13;;;1.80;;
9178;SDS011;4624;48.126;11.546;2023-04-15T01:31:48;3.17;;;1.40;;
9178;SDS011;4624;48.126;11.546;2023-04-15T01:34:16;3.53;;;1.60;;
9178;SDS011;4624;48.126;11.546;2023-04-15T01:36:43;3.20;;;1.40;;
9178;SDS011;4624;48.126;11.546;2023-04-15T01:39:10;4.00;;;1.50;;
9178;SDS011;4624;48.126;11.546;2023-04-15T01:41:37;3.03;;;1.60;;
9178;SDS011;4624;48.126;11.546;2023-04-15T01:44:06;3.13;;;2.00;;
9178;SDS011;4624;48.126;11.546;2023-04-15T01:46:33;2.10;;;1.50;;
9178;SDS011;4624;48.126;11.546;2023-04-15T01:49:01;3.53;;;1.87;;
9178;SDS011;4624;48.126;11.546;2023-04-15T01:51:27;2.80;;;1.90;;
9178;SDS011;4624;48.126;11.546;2023-04-15T01:53:54;1.67;;;1.57;;
9178;SDS011;4624;48.126;11.546;2023-04-15T01:56:21;2.43;;;1.40;;
9178;SDS011;4624;48.126;11.546;2023-04-15T01:58:49;3.30;;;1.40;;
9178;SDS011;4624;48.126;11.546;2023-04-15T02:01:17;5.00;;;2.10;;
9178;SDS011;4624;48.126;11.546;2023-04-15T02:03:44;2.70;;;1.43;;
9178;SDS011;4624;48.126;11.546;2023-04-15T02:06:11;4.23;;;1.73;;
9178;SDS011;4624;48.126;11.546;2023-04-15T02:08:38;3.37;;;1.70;;
9178;SDS011;4624;48.126;11.546;2023-04-15T02:11:05;2.37;;;1.57;;
9178;SDS011;4624;48.126;11.546;2023-04-15T02:13:32;3.20;;;1.60;;
9178;SDS011;4624;48.126;11.546;2023-04-15T02:15:59;2.80;;;2.03;;
9178;SDS011;4624;48.126;11.546;2023-04-15T02:18:27;2.80;;;1.63;;
9178;SDS011;4624;48.126;11.546;2023-04-15T02:20:53;2.60;;;1.50;;
9178;SDS011;4624;48.126;11.546;2023-04-15T02:23:22;3.73;;;1.70;;
9178;SDS011;4624;48.126;11.546;2023-04-15T02:25:49;2.43;;;1.20;;
9178;SDS011;4624;48.126;11.546;2023-04-15T02:28:16;2.53;;;1.73;;
9178;SDS011;4624;48.126;11.546;2023-04-15T02:30:42;4.17;;;1.90;;
9178;SDS011;4624;48.126;11.546;2023-04-15T02:33:12;4.00;;;1.60;;
9178;SDS011;4624;48.126;11.546;2023-04-15T02:35:40;1.50;;;1.20;;
9178;SDS011;4624;48.126;11.546;2023-04-15T02:38:09;3.97;;;1.67;;
9178;SDS011;4624;48.126;11.546;2023-04-15T02:40:36;3.03;;;1.50;;
9178;SDS011;4624;48.126;11.546;2023-04-15T02:43:02;5.40;;;1.93;;
9178;SDS011;4624;48.126;11.546;2023-04-15T02:45:30;4.43;;;2.03;;
9178;SDS011;4624;48.126;11.546;2023-04-15T02:47:57;3.70;;;2.10;;
9178;SDS011;4624;48.126;11.546;2023-04-15T02:50:27;2.43;;;1.47;;
9178;SDS011;4624;48.126;11.546;2023-04-15T02:52:57;4.53;;;1.60;;
9178;SDS011;4624;48.126;11.546;2023-04-15T02:55:25;5.10;;;1.60;;
9178;SDS011;4624;48.126;11.546;2023-04-15T02:57:52;4.70;;;1.30;;
9178;SDS011;4624;48.126;11.546;2023-04-15T03:00:18;3.07;;;1.33;;
9178;SDS011;4624;48.126;11.546;2023-04-15T03:02:45;2.03;;;1.57;;
9178;SDS011;4624;48.126;11.546;2023-04-15T03:05:16;3.00;;;1.53;;
9178;SDS011;4624;48.126;11.546;2023-04-15T03:07:42;3.73;;;1.70;;
9178;SDS011;4624;48.126;11.546;2023-04-15T03:10:11;3.13;;;1.53;;
9178;SDS011;4624;48.126;11.546;2023-04-15T03:12:37;2.70;;;1.37;;
9178;SDS011;4624;48.126;11.546;2023-04-15T03:15:05;2.73;;;1.60;;
9178;SDS011;4624;48.126;11.546;2023-04-15T03:17:34;3.30;;;1.53;;
9178;SDS011;4624;48.126;11.546;2023-04-15T03:20:00;3.23;;;1.73;;
9178;SDS011;4624;48.126;11.546;2023-04-15T03:22:28;2.07;;;1.30;;
9178;SDS011;4624;48.126;11.546;2023-04-15T03:24:55;6.13;;;1.77;;
9178;SDS011;4624;48.126;11.546;2023-04-15T03:27:23;2.17;;;1.33;;
9178;SDS011;4624;48.126;11.546;2023-04-15T03:29:50;3.33;;;1.50;;
9178;SDS011;4624;48.126;11.546;2023-04-15T03:32:17;2.20;;;1.60;;
9178;SDS011;4624;48.126;11.546;2023-04-15T03:34:43;2.40;;;1.20;;
9178;SDS011;4624;48.126;11.546;2023-04-15T03:37:10;3.77;;;1.30;;
9178;SDS011;4624;48.126;11.546;2023-04-15T03:39:37;2.07;;;1.70;;
9178;SDS011;4624;48.126;11.546;2023-04-15T03:42:04;2.37;;;1.40;;
9178;SDS011;4624;48.126;11.546;2023-04-15T03:44:32;4.10;;;1.50;;
9178;SDS011;4624;48.126;11.546;2023-04-15T03:46:58;3.77;;;1.30;;
9178;SDS011;4624;48.126;11.546;2023-04-15T03:49:25;3.10;;;1.27;;
9178;SDS011;4624;48.126;11.546;2023-04-15T03:51:52;2.77;;;2.00;;
9178;SDS011;4624;48.126;11.546;2023-04-15T03:54:19;2.63;;;1.40;;
9178;SDS011;4624;48.126;11.546;2023-04-15T03:56:45;2.33;;;1.50;;
9178;SDS011;4624;48.126;11.546;2023-04-15T03:59:12;2.67;;;1.33;;
9178;SDS011;4624;48.126;11.546;2023-04-15T04:01:40;2.03;;;1.40;;
9178;SDS011;4624;48.126;11.546;2023-04-15T04:04:07;3.83;;;1.30;;
9178;SDS011;4624;48.126;11.546;2023-04-15T04:06:34;2.77;;;1.30;;
9178;SDS011;4624;48.126;11.546;2023-04-15T04:09:00;3.57;;;1.20;;
9178;SDS011;4624;48.126;11.546;2023-04-15T04:11:27;1.37;;;1.27;;
9178;SDS011;4624;48.126;11.546;2023-04-15T04:13:54;2.93;;;1.00;;
9178;SDS011;4624;48.126;11.546;2023-04-15T04:16:21;4.33;;;1.30;;
9178;SDS011;4624;48.126;11.546;2023-04-15T04:18:49;2.27;;;1.40;;
9178;SDS011;4624;48.126;11.546;2023-04-15T04:21:16;2.63;;;1.50;;
9178;SDS011;4624;48.126;11.546;2023-04-15T04:23:43;4.43;;;1.27;;
9178;SDS011;4624;48.126;11.546;2023-04-15T04:26:09;2.83;;;1.43;;
9178;SDS011;4624;48.126;11.546;2023-04-15T04:28:36;4.23;;;1.30;;
9178;SDS011;4624;48.126;11.546;2023-04-15T04:31:04;1.90;;;1.30;;
9178;SDS011;4624;48.126;11.546;2023-04-15T04:33:31;3.97;;;1.40;;
9178;SDS011;4624;48.126;11.546;2023-04-15T04:35:59;3.33;;;1.20;;
9178;SDS011;4624;48.126;11.546;2023-04-15T04:38:26;1.50;;;1.10;;
9178;SDS011;4624;48.126;11.546;2023-04-15T04:40:53;2.30;;;1.20;;
9178;SDS011;4624;48.126;11.546;2023-04-15T04:43:20;2.00;;;0.90;;
9178;SDS011;4624;48.126;11.546;2023-04-15T04:45:46;4.17;;;1.10;;
9178;SDS011;4624;48.126;11.546;2023-04-15T04:48:13;3.53;;;1.10;;
9178;SDS011;4624;48.126;11.546;2023-04-15T04:50:41;2.37;;;1.17;;
9178;SDS011;4624;48.126;11.546;2023-04-15T04:53:09;1.83;;;1.50;;
9178;SDS011;4624;48.126;11.546;2023-04-15T04:55:36;2.93;;;1.10;;
9178;SDS011;4624;48.126;11.546;2023-04-15T04:58:03;1.57;;;1.20;;
9178;SDS011;4624;48.126;11.546;2023-04-15T05:00:30;3.50;;;1.00;;
9178;SDS011;4624;48.126;11.546;2023-04-15T05:02:57;3.40;;;1.27;;
9178;SDS011;4624;48.126;11.546;2023-04-15T05:05:24;3.23;;;1.33;;
9178;SDS011;4624;48.126;11.546;2023-04-15T05:07:51;4.97;;;1.40;;
9178;SDS011;4624;48.126;11.546;2023-04-15T05:10:19;1.77;;;1.00;;
9178;SDS011;4624;48.126;11.546;2023-04-15T05:12:46;1.70;;;0.90;;
9178;SDS011;4624;48.126;11.546;2023-04-15T05:15:13;3.40;;;1.50;;
9178;SDS011;4624;48.126;11.546;2023-04-15T05:17:39;2.13;;;1.00;;
9178;SDS011;4624;48.126;11.546;2023-04-15T05:20:07;3.57;;;1.33;;
9178;SDS011;4624;48.126;11.546;2023-04-15T05:22:34;3.03;;;1.20;;
9178;SDS011;4624;48.126;11.546;2023-04-15T05:25:01;5.63;;;1.27;;
9178;SDS011;4624;48.126;11.546;2023-04-15T05:27:30;2.00;;;1.40;;
9178;SDS011;4624;48.126;11.546;2023-04-15T05:29:57;4.20;;;1.20;;
9178;SDS011;4624;48.126;11.546;2023-04-15T05:32:23;5.27;;;1.30;;
9178;SDS011;4624;48.126;11.546;2023-04-15T05:34:50;1.90;;;1.03;;
9178;SDS011;4624;48.126;11.546;2023-04-15T05:37:17;0.87;;;0.80;;
9178;SDS011;4624;48.126;11.546;2023-04-15T05:39:46;1.90;;;0.90;;
9178;SDS011;4624;48.126;11.546;2023-04-15T05:42:13;2.60;;;1.00;;
9178;SDS011;4624;48.126;11.546;2023-04-15T05:44:42;2.23;;;1.00;;
9178;SDS011;4624;48.126;11.546;2023-04-15T05:47:08;2.80;;;1.10;;
9178;SDS011;4624;48.126;11.546;2023-04-15T05:49:35;3.13;;;0.97;;
9178;SDS011;4624;48.126;11.546;2023-04-15T05:52:02;1.50;;;0.87;;
9178;SDS011;4624;48.126;11.546;2023-04-15T05:54:29;1.63;;;0.67;;
9178;SDS011;4624;48.126;11.546;2023-04-15T05:56:56;1.00;;;0.73;;
9178;SDS011;4624;48.126;11.546;2023-04-15T05:59:23;1.90;;;0.90;;
9178;SDS011;4624;48.126;11.546;2023-04-15T06:01:51;3.80;;;0.97;;
9178;SDS011;4624;48.126;11.546;2023-04-15T06:04:18;5.67;;;1.23;;
9178;SDS011;4624;48.126;11.546;2023-04-15T06:06:44;1.23;;;0.80;;
9178;SDS011;4624;48.126;11.546;2023-04-15T06:09:12;2.27;;;0.90;;
9178;SDS011;4624;48.126;11.546;2023-04-15T06:11:38;3.10;;;0.87;;
9178;SDS011;4624;48.126;11.546;2023-04-15T06:14:06;2.20;;;0.90;;
9178;SDS011;4624;48.126;11.546;2023-04-15T06:16:32;2.50;;;1.03;;
9178;SDS011;4624;48.126;11.546;2023-04-15T06:19:01;1.20;;;0.77;;
9178;SDS011;4624;48.126;11.546;2023-04-15T06:21:28;2.57;;;1.00;;
9178;SDS011;4624;48.126;11.546;2023-04-15T06:23:55;2.50;;;1.30;;
9178;SDS011;4624;48.126;11.546;2023-04-15T06:26:23;3.70;;;1.73;;
9178;SDS011;4624;48.126;11.546;2023-04-15T06:28:50;2.43;;;0.97;;
9178;SDS011;4624;48.126;11.546;2023-04-15T06:31:17;1.57;;;0.73;;
9178;SDS011;4624;48.126;11.546;2023-04-15T06:33:44;3.87;;;1.13;;
9178;SDS011;4624;48.126;11.546;2023-04-15T06:36:12;4.27;;;1.10;;
9178;SDS011;4624;48.126;11.546;2023-04-15T06:38:39;2.30;;;0.90;;
9178;SDS011;4624;48.126;11.546;2023-04-15T06:41:06;2.50;;;1.10;;
9178;SDS011;4624;48.126;11.546;2023-04-15T06:43:32;1.23;;;0.63;;
9178;SDS011;4624;48.126;11.546;2023-04-15T06:45:59;3.00;;;0.90;;
9178;SDS011;4624;48.126;11.546;2023-04-15T06:48:26;1.60;;;0.80;;
9178;SDS011;4624;48.126;11.546;2023-04-15T06:50:53;1.97;;;0.90;;
9178;SDS011;4624;48.126;11.546;2023-04-15T06:53:21;2.27;;;0.83;;
9178;SDS011;4624;48.126;11.546;2023-04-15T06:55:48;2.23;;;0.70;;
9178;SDS011;4624;48.126;11.546;2023-04-15T06:58:14;3.13;;;1.10;;
9178;SDS011;4624;48.126;11.546;2023-04-15T07:00:41;1.93;;;0.70;;
9178;SDS011;4624;48.126;11.546;2023-04-15T07:03:08;0.73;;;0.70;;
9178;SDS011;4624;48.126;11.546;2023-04-15T07:05:37;3.07;;;0.70;;
9178;SDS011;4624;48.126;11.546;2023-04-15T07:08:04;1.50;;;0.80;;
9178;SDS011;4624;48.126;11.546;2023-04-15T07:10:32;1.50;;;0.80;;
9178;SDS011;4624;48.126;11.546;2023-04-15T07:12:59;1.87;;;0.83;;
9178;SDS011;4624;48.126;11.546;2023-04-15T07:15:26;4.13;;;1.03;;
9178;SDS011;4624;48.126;11.546;2023-04-15T07:17:53;1.10;;;0.63;;
9178;SDS011;4624;48.126;11.546;2023-04-15T07:20:20;2.53;;;0.40;;
9178;SDS011;4624;48.126;11.546;2023-04-15T07:22:47;3.27;;;0.80;;
9178;SDS011;4624;48.126;11.546;2023-04-15T07:25:14;0.60;;;0.60;;
9178;SDS011;4624;48.126;11.546;2023-04-15T07:27:43;2.27;;;0.87;;
9178;SDS011;4624;48.126;11.546;2023-04-15T07:30:10;1.13;;;0.80;;
9178;SDS011;4624;48.126;11.546;2023-04-15T07:32:37;1.87;;;1.00;;
9178;SDS011;4624;48.126;11.546;2023-04-15T07:35:04;1.73;;;0.80;;
9178;SDS011;4624;48.126;11.546;2023-04-15T07:37:31;3.83;;;0.57;;
9178;SDS011;4624;48.126;11.546;2023-04-15T07:39:58;0.80;;;0.63;;
9178;SDS011;4624;48.126;11.546;2023-04-15T07:42:25;0.63;;;0.63;;
9178;SDS011;4624;48.126;11.546;2023-04-15T07:44:54;2.00;;;0.57;;
9178;SDS011;4624;48.126;11.546;2023-04-15T07:47:22;2.10;;;0.67;;
9178;SDS011;4624;48.126;11.546;2023-04-15T07:49:48;2.13;;;0.73;;
9178;SDS011;4624;48.126;11.546;2023-04-15T07:52:16;0.73;;;0.60;;
9178;SDS011;4624;48.126;11.546;2023-04-15T07:54:43;1.07;;;0.53;;
9178;SDS011;4624;48.126;11.546;2023-04-15T07:57:10;0.93;;;0.53;;
9178;SDS011;4624;48.126;11.546;2023-04-15T07:59:37;3.47;;;0.77;;
9178;SDS011;4624;48.126;11.546;2023-04-15T08:02:05;1.30;;;0.60;;
9178;SDS011;4624;48.126;11.546;2023-04-15T08:04:32;2.03;;;0.70;;
9178;SDS011;4624;48.126;11.546;2023-04-15T08:06:59;1.40;;;0.80;;
9178;SDS011;4624;48.126;11.546;2023-04-15T08:09:26;1.30;;;0.80;;
9178;SDS011;4624;48.126;11.546;2023-04-15T08:11:53;2.70;;;1.13;;
9178;SDS011;4624;48.126;11.546;2023-04-15T08:14:20;2.73;;;0.70;;
9178;SDS011;4624;48.126;11.546;2023-04-15T08:16:47;3.03;;;0.80;;
9178;SDS011;4624;48.126;11.546;2023-04-15T08:19:15;1.57;;;0.70;;
9178;SDS011;4624;48.126;11.546;2023-04-15T08:21:42;1.73;;;1.10;;
9178;SDS011;4624;48.126;11.546;2023-04-15T08:24:09;1.80;;;1.10;;
9178;SDS011;4624;48.126;11.546;2023-04-15T08:26:35;1.93;;;0.70;;
9178;SDS011;4624;48.126;11.546;2023-04-15T08:29:02;2.33;;;1.00;;
9178;SDS011;4624;48.126;11.546;2023-04-15T08:31:29;3.00;;;0.90;;
9178;SDS011;4624;48.126;11.546;2023-04-15T08:33:56;1.57;;;0.90;;
9178;SDS011;4624;48.126;11.546;2023-04-15T08:36:24;2.87;;;1.00;;
9178;SDS011;4624;48.126;11.546;2023-04-15T08:38:52;1.93;;;0.67;;
9178;SDS011;4624;48.126;11.546;2023-04-15T08:41:20;1.03;;;0.80;;
9178;SDS011;4624;48.126;11.546;2023-04-15T08:43:50;3.70;;;2.10;;
9178;SDS011;4624;48.126;11.546;2023-04-15T08:46:18;1.67;;;1.07;;
9178;SDS011;4624;48.126;11.546;2023-04-15T08:48:46;4.13;;;1.27;;
9178;SDS011;4624;48.126;11.546;2023-04-15T08:51:14;2.83;;;1.73;;
9178;SDS011;4624;48.126;11.546;2023-04-15T08:53:43;3.73;;;1.00;;
9178;SDS011;4624;48.126;11.546;2023-04-15T08:56:12;1.83;;;0.77;;
9178;SDS011;4624;48.126;11.546;2023-04-15T08:58:40;2.33;;;1.00;;
9178;SDS011;4624;48.126;11.546;2023-04-15T09:01:08;2.50;;;1.00;;
9178;SDS011;4624;48.126;11.546;2023-04-15T09:03:36;2.10;;;0.90;;
9178;SDS011;4624;48.126;11.546;2023-04-15T09:06:04;2.20;;;1.30;;
9178;SDS011;4624;48.126;11.546;2023-04-15T09:08:31;1.83;;;1.03;;
9178;SDS011;4624;48.126;11.546;2023-04-15T09:11:01;1.83;;;1.00;;
9178;SDS011;4624;48.126;11.546;2023-04-15T09:13:28;0.80;;;0.80;;
9178;SDS011;4624;48.126;11.546;2023-04-15T09:15:55;2.33;;;1.00;;
9178;SDS011;4624;48.126;11.546;2023-04-15T09:18:26;2.87;;;1.30;;
9178;SDS011;4624;48.126;11.546;2023-04-15T09:20:54;1.47;;;1.10;;
9178;SDS011;4624;48.126;11.546;2023-04-15T09:23:22;0.97;;;0.77;;
9178;SDS011;4624;48.126;11.546;2023-04-15T09:25:48;1.73;;;0.90;;
9178;SDS011;4624;48.126;11.546;2023-04-15T09:28:22;1.47;;;0.87;;
9178;SDS011;4624;48.126;11.546;2023-04-15T09:30:50;2.73;;;1.00;;
9178;SDS011;4624;48.126;11.546;2023-04-15T09:33:20;2.10;;;1.10;;
9178;SDS011;4624;48.126;11.546;2023-04-15T09:35:55;1.43;;;1.33;;
9178;SDS011;4624;48.126;11.546;2023-04-15T09:38:23;2.60;;;1.23;;
9178;SDS011;4624;48.126;11.546;2023-04-15T09:40:50;2.33;;;1.00;;
9178;SDS011;4624;48.126;11.546;2023-04-15T09:43:18;1.83;;;1.30;;
9178;SDS011;4624;48.126;11.546;2023-04-15T09:45:46;2.53;;;1.57;;
9178;SDS011;4624;48.126;11.546;2023-04-15T09:48:15;4.40;;;1.90;;
9178;SDS011;4624;48.126;11.546;2023-04-15T09:50:43;4.90;;;2.00;;
9178;SDS011;4624;48.126;11.546;2023-04-15T09:53:10;2.07;;;1.33;;
9178;SDS011;4624;48.126;11.546;2023-04-15T09:55:42;2.03;;;1.67;;
9178;SDS011;4624;48.126;11.546;2023-04-15T09:58:17;1.60;;;1.47;;
9178;SDS011;4624;48.126;11.546;2023-04-15T10:00:45;2.37;;;1.53;;
9178;SDS011;4624;48.126;11.546;2023-04-15T10:03:14;1.97;;;1.70;;
9178;SDS011;4624;48.126;11.546;2023-04-15T10:05:45;3.00;;;2.43;;
9178;SDS011;4624;48.126;11.546;2023-04-15T10:08:15;2.43;;;1.80;;
9178;SDS011;4624;48.126;11.546;2023-04-15T10:10:44;2.43;;;1.60;;
9178;SDS011;4624;48.126;11.546;2023-04-15T10:13:12;2.80;;;1.77;;
9178;SDS011;4624;48.126;11.546;2023-04-15T10:15:42;2.20;;;1.80;;
9178;SDS011;4624;48.126;11.546;2023-04-15T10:18:14;3.33;;;2.20;;
9178;SDS011;4624;48.126;11.546;2023-04-15T10:20:44;2.10;;;1.40;;
9178;SDS011;4624;48.126;11.546;2023-04-15T10:23:12;3.63;;;2.10;;
9178;SDS011;4624;48.126;11.546;2023-04-15T10:25:41;2.83;;;1.57;;
9178;SDS011;4624;48.126;11.546;2023-04-15T10:28:08;2.10;;;1.37;;
9178;SDS011;4624;48.126;11.546;2023-04-15T10:30:35;3.07;;;1.70;;
9178;SDS011;4624;48.126;11.546;2023-04-15T10:33:03;3.67;;;1.80;;
9178;SDS011;4624;48.126;11.546;2023-04-15T10:35:31;2.90;;;2.00;;
9178;SDS011;4624;48.126;11.546;2023-04-15T10:37:59;2.03;;;1.63;;
9178;SDS011;4624;48.126;11.546;2023-04-15T10:40:26;2.37;;;2.03;;
9178;SDS011;4624;48.126;11.546;2023-04-15T10:42:56;2.77;;;1.90;;
9178;SDS011;4624;48.126;11.546;2023-04-15T10:45:24;3.70;;;2.10;;
9178;SDS011;4624;48.126;11.546;2023-04-15T10:47:53;2.93;;;1.93;;
9178;SDS011;4624;48.126;11.546;2023-04-15T10:50:22;3.37;;;2.17;;
9178;SDS011;4624;48.126;11.546;2023-04-15T10:52:52;3.20;;;2.13;;
9178;SDS011;4624;48.126;11.546;2023-04-15T10:55:19;3.70;;;2.47;;
9178;SDS011;4624;48.126;11.546;2023-04-15T10:57:50;4.53;;;2.10;;
9178;SDS011;4624;48.126;11.546;2023-04-15T11:00:18;2.13;;;1.93;;
9178;SDS011;4624;48.126;11.546;2023-04-15T11:02:51;3.87;;;1.77;;
9178;SDS011;4624;48.126;11.546;2023-04-15T11:05:19;3.53;;;2.00;;
9178;SDS011;4624;48.126;11.546;2023-04-15T11:07:50;3.10;;;1.87;;
9178;SDS011;4624;48.126;11.546;2023-04-15T11:13:19;2.60;;;1.53;;
9178;SDS011;4624;48.126;11.546;2023-04-15T11:15:49;4.13;;;1.77;;
9178;SDS011;4624;48.126;11.546;2023-04-15T11:18:16;2.67;;;2.10;;
9178;SDS011;4624;48.126;11.546;2023-04-15T11:20:45;2.10;;;2.00;;
9178;SDS011;4624;48.126;11.546;2023-04-15T11:23:16;2.23;;;2.03;;
9178;SDS011;4624;48.126;11.546;2023-04-15T11:25:44;3.23;;;2.13;;
9178;SDS011;4624;48.126;11.546;2023-04-15T11:28:12;2.67;;;2.20;;
9178;SDS011;4624;48.126;11.546;2023-04-15T11:30:39;2.93;;;2.30;;
9178;SDS011;4624;48.126;11.546;2023-04-15T11:33:07;3.03;;;2.60;;
9178;SDS011;4624;48.126;11.546;2023-04-15T11:35:36;3.67;;;2.17;;
9178;SDS011;4624;48.126;11.546;2023-04-15T11:38:09;3.50;;;2.63;;
9178;SDS011;4624;48.126;11.546;2023-04-15T11:40:39;3.37;;;2.17;;
9178;SDS011;4624;48.126;11.546;2023-04-15T11:43:06;2.40;;;2.20;;
9178;SDS011;4624;48.126;11.546;2023-04-15T11:45:35;2.67;;;2.30;;
9178;SDS011;4624;48.126;11.546;2023-04-15T11:48:05;3.13;;;2.33;;
9178;SDS011;4624;48.126;11.546;2023-04-15T11:50:33;3.97;;;2.33;;
9178;SDS011;4624;48.126;11.546;2023-04-15T11:53:02;2.37;;;2.10;;
9178;SDS011;4624;48.126;11.546;2023-04-15T11:55:29;3.00;;;2.50;;
9178;SDS011;4624;48.126;11.546;2023-04-15T11:58:08;4.63;;;2.17;;
9178;SDS011;4624;48.126;11.546;2023-04-15T12:00:36;2.37;;;2.03;;
9178;SDS011;4624;48.126;11.546;2023-04-15T12:03:10;2.77;;;2.00;;
9178;SDS011;4624;48.126;11.546;2023-04-15T12:11:35;4.67;;;2.30;;
9178;SDS011;4624;48.126;11.546;2023-04-15T12:14:06;4.20;;;2.00;;
9178;SDS011;4624;48.126;11.546;2023-04-15T12:16:35;3.80;;;2.00;;
9178;SDS011;4624;48.126;11.546;2023-04-15T12:19:04;4.13;;;2.20;;
9178;SDS011;4624;48.126;11.546;2023-04-15T12:21:35;3.87;;;2.93;;
9178;SDS011;4624;48.126;11.546;2023-04-15T12:24:03;5.27;;;3.27;;
9178;SDS011;4624;48.126;11.546;2023-04-15T12:26:33;3.90;;;2.57;;
9178;SDS011;4624;48.126;11.546;2023-04-15T12:29:02;2.87;;;2.20;;
9178;SDS011;4624;48.126;11.546;2023-04-15T12:31:31;2.97;;;2.03;;
9178;SDS011;4624;48.126;11.546;2023-04-15T12:33:58;2.30;;;1.70;;
9178;SDS011;4624;48.126;11.546;2023-04-15T12:36:25;2.03;;;1.93;;
9178;SDS011;4624;48.126;11.546;2023-04-15T12:38:54;3.50;;;2.23;;
9178;SDS011;4624;48.126;11.546;2023-04-15T12:41:21;2.93;;;2.37;;
9178;SDS011;4624;48.126;11.546;2023-04-15T12:43:48;4.63;;;2.13;;
9178;SDS011;4624;48.126;11.546;2023-04-15T12:46:15;2.37;;;2.00;;
9178;SDS011;4624;48.126;11.546;2023-04-15T12:48:44;2.80;;;2.20;;
9178;SDS011;4624;48.126;11.546;2023-04-15T12:51:10;2.90;;;2.20;;
9178;SDS011;4624;48.126;11.546;2023-04-15T12:53:37;3.00;;;1.43;;
9178;SDS011;4624;48.126;11.546;2023-04-15T12:56:04;2.37;;;1.40;;
9178;SDS011;4624;48.126;11.546;2023-04-15T12:58:31;2.63;;;1.63;;
9178;SDS011;4624;48.126;11.546;2023-04-15T13:00:58;1.50;;;1.20;;
9178;SDS011;4624;48.126;11.546;2023-04-15T13:03:25;1.30;;;1.17;;
9178;SDS011;4624;48.126;11.546;2023-04-15T13:05:53;2.40;;;1.30;;
9178;SDS011;4624;48.126;11.546;2023-04-15T13:08:21;1.50;;;1.27;;
9178;SDS011;4624;48.126;11.546;2023-04-15T13:10:48;1.23;;;1.13;;
9178;SDS011;4624;48.126;11.546;2023-04-15T13:13:15;1.67;;;1.30;;
9178;SDS011;4624;48.126;11.546;2023-04-15T13:15:41;1.20;;;1.00;;
9178;SDS011;4624;48.126;11.546;2023-04-15T13:18:09;1.27;;;1.17;;
9178;SDS011;4624;48.126;11.546;2023-04-15T13:20:37;1.93;;;1.20;;
9178;SDS011;4624;48.126;11.546;2023-04-15T13:23:05;3.73;;;1.67;;
9178;SDS011;4624;48.126;11.546;2023-04-15T13:25:32;2.50;;;1.50;;
9178;SDS011;4624;48.126;11.546;2023-04-15T13:27:59;1.40;;;1.30;;
9178;SDS011;4624;48.126;11.546;2023-04-15T13:30:26;2.17;;;1.43;;
9178;SDS011;4624;48.126;11.546;2023-04-15T13:32:53;3.90;;;1.50;;
9178;SDS011;4624;48.126;11.546;2023-04-15T13:35:20;3.00;;;1.40;;
9178;SDS011;4624;48.126;11.546;2023-04-15T13:37:46;2.33;;;1.30;;
9178;SDS011;4624;48.126;11.546;2023-04-15T13:40:14;3.50;;;1.53;;
9178;SDS011;4624;48.126;11.546;2023-04-15T13:42:41;2.27;;;1.37;;
9178;SDS011;4624;48.126;11.546;2023-04-15T13:45:08;2.90;;;1.80;;
9178;SDS011;4624;48.126;11.546;2023-04-15T13:47:36;2.70;;;1.70;;
9178;SDS011;4624;48.126;11.546;2023-04-15T13:50:03;1.97;;;1.80;;
9178;SDS011;4624;48.126;11.546;2023-04-15T13:52:30;2.13;;;1.60;;
9178;SDS011;4624;48.126;11.546;2023-04-15T13:54:56;2.70;;;1.93;;
9178;SDS011;4624;48.126;11.546;2023-04-15T13:57:25;3.10;;;1.73;;
9178;SDS011;4624;48.126;11.546;2023-04-15T13:59:52;2.37;;;1.70;;
9178;SDS011;4624;48.126;11.546;2023-04-15T14:02:20;2.37;;;2.17;;
9178;SDS011;4624;48.126;11.546;2023-04-15T14:04:48;3.53;;;2.10;;
9178;SDS011;4624;48.126;11.546;2023-04-15T14:07:14;3.00;;;2.00;;
9178;SDS011;4624;48.126;11.546;2023-04-15T14:09:41;6.40;;;2.00;;
9178;SDS011;4624;48.126;11.546;2023-04-15T14:12:08;2.00;;;1.80;;
9178;SDS011;4624;48.126;11.546;2023-04-15T14:14:36;6.17;;;2.30;;
9178;SDS011;4624;48.126;11.546;2023-04-15T14:17:03;4.63;;;2.10;;
9178;SDS011;4624;48.126;11.546;2023-04-15T14:19:30;6.50;;;1.97;;
9178;SDS011;4624;48.126;11.546;2023-04-15T14:21:57;2.30;;;1.70;;
9178;SDS011;4624;48.126;11.546;2023-04-15T14:24:24;2.00;;;1.37;;
9178;SDS011;4624;48.126;11.546;2023-04-15T14:26:51;1.30;;;1.20;;
9178;SDS011;4624;48.126;11.546;2023-04-15T14:29:18;1.57;;;1.40;;
9178;SDS011;4624;48.126;11.546;2023-04-15T14:31:47;2.10;;;1.20;;
9178;SDS011;4624;48.126;11.546;2023-04-15T14:34:14;1.87;;;1.20;;
9178;SDS011;4624;48.126;11.546;2023-04-15T14:36:40;1.40;;;1.30;;
9178;SDS011;4624;48.126;11.546;2023-04-15T14:39:07;1.50;;;1.40;;
9178;SDS011;4624;48.126;11.546;2023-04-15T14:41:34;2.97;;;1.50;;
9178;SDS011;4624;48.126;11.546;2023-04-15T14:44:01;1.60;;;1.30;;
9178;SDS011;4624;48.126;11.546;2023-04-15T14:46:28;1.53;;;1.43;;
9178;SDS011;4624;48.126;11.546;2023-04-15T14:48:56;3.70;;;1.23;;
9178;SDS011;4624;48.126;11.546;2023-04-15T14:51:23;4.77;;;1.67;;
9178;SDS011;4624;48.126;11.546;2023-04-15T14:53:50;1.90;;;1.50;;
9178;SDS011;4624;48.126;11.546;2023-04-15T14:56:17;1.53;;;1.30;;
9178;SDS011;4624;48.126;11.546;2023-04-15T14:58:44;2.27;;;1.50;;
9178;SDS011;4624;48.126;11.546;2023-04-15T15:01:11;2.00;;;1.47;;
9178;SDS011;4624;48.126;11.546;2023-04-15T15:03:38;2.80;;;1.33;;
9178;SDS011;4624;48.126;11.546;2023-04-15T15:06:06;1.80;;;1.30;;
9178;SDS011;4624;48.126;11.546;2023-04-15T15:08:33;3.37;;;1.60;;
9178;SDS011;4624;48.126;11.546;2023-04-15T15:11:00;1.30;;;1.20;;